De Land, Illinois
Current Conditions -  °F | °C
As of 4:39 PM on Monday 26 Jan 2015 (Local Time) from KCMI Reporting Station
Overcast Overcast  
Wind Chill: 18°   Ceiling: 1700
Heat Index: 27°   Visibility: 7mi
Dew Point: 23°   Wind: 9mph
Humidity: 85%   Direction: 190°S
Pressure: 29.9"   Gusts: NA
Location:  40.12°N, 88.65°W
Report Text: KCMI 262239Z 19008KT 7SM FEW010 BKN017 OVC029 M03/M05 A2990 RMK AO2 T10281050
Loading
Personal Weather Stations






























Interactive Weather Map New forecast layout! Learn more

10-Day Weather Forecast

Advertisements
Track Severe Weather on mobile